sensor_id;sensor_type;location;lat;lon;timestamp;P1;durP1;ratioP1;P2;durP2;ratioP2
23730;SDS011;12046;44.702;10.622;2023-01-10T00:01:10;4.82;;;4.18;;
23730;SDS011;12046;44.702;10.622;2023-01-10T00:03:36;7.88;;;4.53;;
23730;SDS011;12046;44.702;10.622;2023-01-10T00:06:02;5.88;;;4.93;;
23730;SDS011;12046;44.702;10.622;2023-01-10T00:08:28;4.88;;;4.03;;
23730;SDS011;12046;44.702;10.622;2023-01-10T00:10:54;5.20;;;4.70;;
23730;SDS011;12046;44.702;10.622;2023-01-10T00:13:20;6.10;;;4.03;;
23730;SDS011;12046;44.702;10.622;2023-01-10T00:15:50;4.90;;;4.25;;
23730;SDS011;12046;44.702;10.622;2023-01-10T00:18:17;6.05;;;4.95;;
23730;SDS011;12046;44.702;10.622;2023-01-10T00:20:45;7.07;;;5.22;;
23730;SDS011;12046;44.702;10.622;2023-01-10T00:23:12;5.85;;;4.63;;
23730;SDS011;12046;44.702;10.622;2023-01-10T00:25:38;7.93;;;4.78;;
23730;SDS011;12046;44.702;10.622;2023-01-10T00:28:05;6.22;;;4.90;;
23730;SDS011;12046;44.702;10.622;2023-01-10T00:30:31;6.97;;;5.30;;
23730;SDS011;12046;44.702;10.622;2023-01-10T00:32:59;5.80;;;5.07;;
23730;SDS011;12046;44.702;10.622;2023-01-10T00:35:25;5.95;;;5.07;;
23730;SDS011;12046;44.702;10.622;2023-01-10T00:37:51;6.05;;;5.07;;
23730;SDS011;12046;44.702;10.622;2023-01-10T00:40:22;7.15;;;4.90;;
23730;SDS011;12046;44.702;10.622;2023-01-10T00:42:48;8.50;;;5.72;;
23730;SDS011;12046;44.702;10.622;2023-01-10T00:45:33;6.65;;;5.60;;
23730;SDS011;12046;44.702;10.622;2023-01-10T00:47:59;6.13;;;4.70;;
23730;SDS011;12046;44.702;10.622;2023-01-10T00:50:25;6.53;;;4.88;;
23730;SDS011;12046;44.702;10.622;2023-01-10T00:52:51;5.50;;;4.85;;
23730;SDS011;12046;44.702;10.622;2023-01-10T00:55:17;6.72;;;4.78;;
23730;SDS011;12046;44.702;10.622;2023-01-10T00:57:43;6.43;;;4.78;;
23730;SDS011;12046;44.702;10.622;2023-01-10T01:00:09;5.10;;;4.32;;
23730;SDS011;12046;44.702;10.622;2023-01-10T01:02:36;5.25;;;4.07;;
23730;SDS011;12046;44.702;10.622;2023-01-10T01:05:02;4.80;;;4.05;;
23730;SDS011;12046;44.702;10.622;2023-01-10T01:07:29;5.07;;;4.30;;
23730;SDS011;12046;44.702;10.622;2023-01-10T01:09:55;5.60;;;3.75;;
23730;SDS011;12046;44.702;10.622;2023-01-10T01:12:39;6.10;;;3.60;;
23730;SDS011;12046;44.702;10.622;2023-01-10T01:15:05;6.18;;;4.40;;
23730;SDS011;12046;44.702;10.622;2023-01-10T01:17:31;5.30;;;4.10;;
23730;SDS011;12046;44.702;10.622;2023-01-10T01:19:57;5.28;;;4.30;;
23730;SDS011;12046;44.702;10.622;2023-01-10T01:22:23;4.18;;;3.78;;
23730;SDS011;12046;44.702;10.622;2023-01-10T01:24:49;6.75;;;5.18;;
23730;SDS011;12046;44.702;10.622;2023-01-10T01:27:16;6.65;;;4.50;;
23730;SDS011;12046;44.702;10.622;2023-01-10T01:29:42;5.32;;;4.40;;
23730;SDS011;12046;44.702;10.622;2023-01-10T01:32:08;5.10;;;4.20;;
23730;SDS011;12046;44.702;10.622;2023-01-10T01:34:34;4.97;;;4.10;;
23730;SDS011;12046;44.702;10.622;2023-01-10T01:37:00;4.00;;;3.60;;
23730;SDS011;12046;44.702;10.622;2023-01-10T01:39:26;5.20;;;4.40;;
23730;SDS011;12046;44.702;10.622;2023-01-10T01:41:51;4.53;;;4.00;;
23730;SDS011;12046;44.702;10.622;2023-01-10T01:44:29;5.18;;;3.90;;
23730;SDS011;12046;44.702;10.622;2023-01-10T01:49:33;3.70;;;3.30;;
23730;SDS011;12046;44.702;10.622;2023-01-10T01:52:05;4.25;;;3.63;;
23730;SDS011;12046;44.702;10.622;2023-01-10T01:54:36;4.28;;;3.78;;
23730;SDS011;12046;44.702;10.622;2023-01-10T01:57:04;4.57;;;4.13;;
23730;SDS011;12046;44.702;10.622;2023-01-10T01:59:35;5.18;;;3.35;;
23730;SDS011;12046;44.702;10.622;2023-01-10T02:02:07;4.47;;;3.85;;
23730;SDS011;12046;44.702;10.622;2023-01-10T02:04:56;4.35;;;3.38;;
23730;SDS011;12046;44.702;10.622;2023-01-10T02:07:28;4.00;;;3.55;;
23730;SDS011;12046;44.702;10.622;2023-01-10T02:09:59;3.92;;;3.60;;
23730;SDS011;12046;44.702;10.622;2023-01-10T02:12:41;4.00;;;3.25;;
23730;SDS011;12046;44.702;10.622;2023-01-10T02:15:10;4.10;;;3.13;;
23730;SDS011;12046;44.702;10.622;2023-01-10T02:17:37;6.38;;;3.70;;
23730;SDS011;12046;44.702;10.622;2023-01-10T02:20:07;4.80;;;3.47;;
23730;SDS011;12046;44.702;10.622;2023-01-10T02:33:44;3.67;;;2.75;;
23730;SDS011;12046;44.702;10.622;2023-01-10T02:36:13;5.22;;;3.55;;
23730;SDS011;12046;44.702;10.622;2023-01-10T02:44:07;5.20;;;2.95;;
23730;SDS011;12046;44.702;10.622;2023-01-10T02:46:41;3.42;;;2.70;;
23730;SDS011;12046;44.702;10.622;2023-01-10T02:49:10;4.25;;;2.83;;
23730;SDS011;12046;44.702;10.622;2023-01-10T02:51:36;3.13;;;2.78;;
23730;SDS011;12046;44.702;10.622;2023-01-10T02:54:04;4.57;;;3.00;;
23730;SDS011;12046;44.702;10.622;2023-01-10T03:07:53;5.65;;;3.00;;
23730;SDS011;12046;44.702;10.622;2023-01-10T03:13:08;4.68;;;3.03;;
23730;SDS011;12046;44.702;10.622;2023-01-10T03:15:39;5.13;;;2.92;;
23730;SDS011;12046;44.702;10.622;2023-01-10T03:18:15;3.67;;;2.70;;
23730;SDS011;12046;44.702;10.622;2023-01-10T03:20:46;3.00;;;2.70;;
23730;SDS011;12046;44.702;10.622;2023-01-10T03:23:15;3.55;;;2.80;;
23730;SDS011;12046;44.702;10.622;2023-01-10T03:25:45;5.00;;;3.33;;
23730;SDS011;12046;44.702;10.622;2023-01-10T03:28:25;5.38;;;3.05;;
23730;SDS011;12046;44.702;10.622;2023-01-10T03:33:28;4.28;;;3.10;;
23730;SDS011;12046;44.702;10.622;2023-01-10T03:36:10;3.17;;;2.88;;
23730;SDS011;12046;44.702;10.622;2023-01-10T03:41:49;3.00;;;2.67;;
23730;SDS011;12046;44.702;10.622;2023-01-10T03:47:41;3.60;;;3.20;;
23730;SDS011;12046;44.702;10.622;2023-01-10T03:50:12;4.05;;;3.15;;
23730;SDS011;12046;44.702;10.622;2023-01-10T03:52:41;3.88;;;2.88;;
23730;SDS011;12046;44.702;10.622;2023-01-10T03:55:09;5.22;;;2.92;;
23730;SDS011;12046;44.702;10.622;2023-01-10T03:57:40;6.97;;;3.17;;
23730;SDS011;12046;44.702;10.622;2023-01-10T04:00:07;6.70;;;3.15;;
23730;SDS011;12046;44.702;10.622;2023-01-10T04:02:34;4.40;;;2.97;;
23730;SDS011;12046;44.702;10.622;2023-01-10T04:05:00;3.33;;;2.55;;
23730;SDS011;12046;44.702;10.622;2023-01-10T04:07:26;3.03;;;2.38;;
23730;SDS011;12046;44.702;10.622;2023-01-10T04:09:52;3.80;;;2.63;;
23730;SDS011;12046;44.702;10.622;2023-01-10T04:12:18;3.58;;;2.88;;
23730;SDS011;12046;44.702;10.622;2023-01-10T04:14:44;5.55;;;2.67;;
23730;SDS011;12046;44.702;10.622;2023-01-10T04:17:12;3.17;;;2.42;;
23730;SDS011;12046;44.702;10.622;2023-01-10T04:19:38;2.80;;;2.13;;
23730;SDS011;12046;44.702;10.622;2023-01-10T04:22:04;4.38;;;2.20;;
23730;SDS011;12046;44.702;10.622;2023-01-10T04:24:30;2.25;;;1.95;;
23730;SDS011;12046;44.702;10.622;2023-01-10T04:26:56;2.60;;;1.90;;
23730;SDS011;12046;44.702;10.622;2023-01-10T04:29:22;2.05;;;1.60;;
23730;SDS011;12046;44.702;10.622;2023-01-10T04:31:49;2.28;;;1.90;;
23730;SDS011;12046;44.702;10.622;2023-01-10T04:34:15;7.05;;;2.35;;
23730;SDS011;12046;44.702;10.622;2023-01-10T04:36:41;7.22;;;2.65;;
23730;SDS011;12046;44.702;10.622;2023-01-10T04:39:07;8.55;;;2.92;;
23730;SDS011;12046;44.702;10.622;2023-01-10T04:41:33;6.50;;;3.00;;
23730;SDS011;12046;44.702;10.622;2023-01-10T04:43:59;2.60;;;2.20;;
23730;SDS011;12046;44.702;10.622;2023-01-10T04:46:25;3.05;;;2.35;;
23730;SDS011;12046;44.702;10.622;2023-01-10T04:48:51;7.63;;;2.60;;
23730;SDS011;12046;44.702;10.622;2023-01-10T04:51:17;4.22;;;2.30;;
23730;SDS011;12046;44.702;10.622;2023-01-10T04:53:43;4.28;;;1.77;;
23730;SDS011;12046;44.702;10.622;2023-01-10T04:56:09;8.40;;;2.60;;
23730;SDS011;12046;44.702;10.622;2023-01-10T04:58:40;10.00;;;2.65;;
23730;SDS011;12046;44.702;10.622;2023-01-10T05:01:10;5.32;;;2.05;;
23730;SDS011;12046;44.702;10.622;2023-01-10T05:03:38;1.20;;;1.10;;
23730;SDS011;12046;44.702;10.622;2023-01-10T05:06:05;2.15;;;1.27;;
23730;SDS011;12046;44.702;10.622;2023-01-10T05:08:31;1.75;;;1.10;;
23730;SDS011;12046;44.702;10.622;2023-01-10T05:10:58;1.67;;;1.30;;
23730;SDS011;12046;44.702;10.622;2023-01-10T05:13:24;3.10;;;1.08;;
23730;SDS011;12046;44.702;10.622;2023-01-10T05:15:56;2.53;;;1.15;;
23730;SDS011;12046;44.702;10.622;2023-01-10T05:18:25;2.25;;;1.02;;
23730;SDS011;12046;44.702;10.622;2023-01-10T05:20:52;1.00;;;0.90;;
23730;SDS011;12046;44.702;10.622;2023-01-10T05:23:23;1.60;;;0.80;;
23730;SDS011;12046;44.702;10.622;2023-01-10T05:25:49;0.93;;;0.68;;
23730;SDS011;12046;44.702;10.622;2023-01-10T05:28:15;1.25;;;0.80;;
23730;SDS011;12046;44.702;10.622;2023-01-10T05:30:41;3.17;;;0.90;;
23730;SDS011;12046;44.702;10.622;2023-01-10T05:33:07;1.15;;;0.80;;
23730;SDS011;12046;44.702;10.622;2023-01-10T05:35:33;2.30;;;0.55;;
23730;SDS011;12046;44.702;10.622;2023-01-10T05:37:59;1.63;;;0.60;;
23730;SDS011;12046;44.702;10.622;2023-01-10T05:40:25;2.42;;;0.63;;
23730;SDS011;12046;44.702;10.622;2023-01-10T05:42:50;2.17;;;0.70;;
23730;SDS011;12046;44.702;10.622;2023-01-10T05:45:16;4.53;;;1.00;;
23730;SDS011;12046;44.702;10.622;2023-01-10T05:47:46;2.83;;;1.10;;
23730;SDS011;12046;44.702;10.622;2023-01-10T05:50:12;8.75;;;1.50;;
23730;SDS011;12046;44.702;10.622;2023-01-10T05:52:38;5.18;;;1.20;;
23730;SDS011;12046;44.702;10.622;2023-01-10T05:55:04;2.20;;;0.90;;
23730;SDS011;12046;44.702;10.622;2023-01-10T05:57:30;0.75;;;0.47;;
23730;SDS011;12046;44.702;10.622;2023-01-10T05:59:57;1.45;;;0.52;;
23730;SDS011;12046;44.702;10.622;2023-01-10T06:02:23;0.60;;;0.60;;
23730;SDS011;12046;44.702;10.622;2023-01-10T06:04:50;1.65;;;0.65;;
23730;SDS011;12046;44.702;10.622;2023-01-10T06:07:19;1.15;;;0.43;;
23730;SDS011;12046;44.702;10.622;2023-01-10T06:09:46;1.15;;;0.60;;
23730;SDS011;12046;44.702;10.622;2023-01-10T06:12:12;6.07;;;1.38;;
23730;SDS011;12046;44.702;10.622;2023-01-10T06:14:38;2.58;;;0.85;;
23730;SDS011;12046;44.702;10.622;2023-01-10T06:17:04;3.55;;;0.68;;
23730;SDS011;12046;44.702;10.622;2023-01-10T06:19:34;5.55;;;0.90;;
23730;SDS011;12046;44.702;10.622;2023-01-10T06:22:03;4.43;;;0.90;;
23730;SDS011;12046;44.702;10.622;2023-01-10T06:24:31;8.35;;;1.23;;
23730;SDS011;12046;44.702;10.622;2023-01-10T06:27:00;8.75;;;1.60;;
23730;SDS011;12046;44.702;10.622;2023-01-10T06:29:26;8.18;;;1.40;;
23730;SDS011;12046;44.702;10.622;2023-01-10T06:31:52;1.90;;;0.60;;
23730;SDS011;12046;44.702;10.622;2023-01-10T06:34:18;0.63;;;0.60;;
23730;SDS011;12046;44.702;10.622;2023-01-10T06:36:47;4.70;;;0.73;;
23730;SDS011;12046;44.702;10.622;2023-01-10T06:39:16;0.77;;;0.50;;
23730;SDS011;12046;44.702;10.622;2023-01-10T06:41:42;2.55;;;0.80;;
23730;SDS011;12046;44.702;10.622;2023-01-10T06:44:08;4.10;;;0.93;;
23730;SDS011;12046;44.702;10.622;2023-01-10T06:46:34;5.82;;;1.10;;
23730;SDS011;12046;44.702;10.622;2023-01-10T06:49:00;2.75;;;0.85;;
23730;SDS011;12046;44.702;10.622;2023-01-10T06:51:26;4.25;;;1.00;;
23730;SDS011;12046;44.702;10.622;2023-01-10T06:53:52;3.97;;;0.68;;
23730;SDS011;12046;44.702;10.622;2023-01-10T06:56:18;1.77;;;0.90;;
23730;SDS011;12046;44.702;10.622;2023-01-10T06:58:46;0.80;;;0.60;;
23730;SDS011;12046;44.702;10.622;2023-01-10T07:01:15;1.52;;;0.60;;
23730;SDS011;12046;44.702;10.622;2023-01-10T07:03:42;3.33;;;0.70;;
23730;SDS011;12046;44.702;10.622;2023-01-10T07:06:08;3.05;;;0.80;;
23730;SDS011;12046;44.702;10.622;2023-01-10T07:08:38;2.20;;;0.60;;
23730;SDS011;12046;44.702;10.622;2023-01-10T07:11:09;1.23;;;0.55;;
23730;SDS011;12046;44.702;10.622;2023-01-10T07:13:36;3.67;;;0.80;;
23730;SDS011;12046;44.702;10.622;2023-01-10T07:16:06;1.60;;;1.00;;
23730;SDS011;12046;44.702;10.622;2023-01-10T07:18:37;2.85;;;0.82;;
23730;SDS011;12046;44.702;10.622;2023-01-10T07:21:04;1.35;;;0.77;;
23730;SDS011;12046;44.702;10.622;2023-01-10T07:23:31;1.60;;;1.00;;
23730;SDS011;12046;44.702;10.622;2023-01-10T07:25:57;2.95;;;0.70;;
23730;SDS011;12046;44.702;10.622;2023-01-10T07:28:28;2.08;;;0.65;;
23730;SDS011;12046;44.702;10.622;2023-01-10T07:30:56;1.58;;;0.80;;
23730;SDS011;12046;44.702;10.622;2023-01-10T07:33:30;7.97;;;1.23;;
23730;SDS011;12046;44.702;10.622;2023-01-10T07:35:56;1.98;;;0.90;;
23730;SDS011;12046;44.702;10.622;2023-01-10T07:38:24;5.97;;;1.00;;
23730;SDS011;12046;44.702;10.622;2023-01-10T07:40:50;3.25;;;0.80;;
23730;SDS011;12046;44.702;10.622;2023-01-10T07:43:22;4.60;;;0.88;;
23730;SDS011;12046;44.702;10.622;2023-01-10T07:45:47;3.83;;;0.85;;
23730;SDS011;12046;44.702;10.622;2023-01-10T07:48:13;2.72;;;1.00;;
23730;SDS011;12046;44.702;10.622;2023-01-10T07:50:42;3.22;;;1.23;;
23730;SDS011;12046;44.702;10.622;2023-01-10T07:53:08;1.33;;;0.80;;
23730;SDS011;12046;44.702;10.622;2023-01-10T07:55:35;2.92;;;0.90;;
23730;SDS011;12046;44.702;10.622;2023-01-10T07:58:03;6.85;;;1.05;;
23730;SDS011;12046;44.702;10.622;2023-01-10T08:00:32;1.83;;;0.75;;
23730;SDS011;12046;44.702;10.622;2023-01-10T08:02:59;3.58;;;0.75;;
23730;SDS011;12046;44.702;10.622;2023-01-10T08:05:26;2.40;;;0.85;;
23730;SDS011;12046;44.702;10.622;2023-01-10T08:07:52;4.03;;;0.85;;
23730;SDS011;12046;44.702;10.622;2023-01-10T08:10:24;4.32;;;1.33;;
23730;SDS011;12046;44.702;10.622;2023-01-10T08:12:51;6.80;;;1.63;;
23730;SDS011;12046;44.702;10.622;2023-01-10T08:15:19;5.70;;;1.75;;
23730;SDS011;12046;44.702;10.622;2023-01-10T08:17:46;8.13;;;2.03;;
23730;SDS011;12046;44.702;10.622;2023-01-10T08:20:14;5.05;;;1.90;;
23730;SDS011;12046;44.702;10.622;2023-01-10T08:22:42;6.20;;;2.05;;
23730;SDS011;12046;44.702;10.622;2023-01-10T08:25:09;4.25;;;2.10;;
23730;SDS011;12046;44.702;10.622;2023-01-10T08:27:35;7.05;;;2.17;;
23730;SDS011;12046;44.702;10.622;2023-01-10T08:30:02;6.30;;;2.20;;
23730;SDS011;12046;44.702;10.622;2023-01-10T08:32:29;6.88;;;2.00;;
23730;SDS011;12046;44.702;10.622;2023-01-10T08:34:55;4.90;;;1.90;;
23730;SDS011;12046;44.702;10.622;2023-01-10T08:37:21;5.53;;;1.63;;
23730;SDS011;12046;44.702;10.622;2023-01-10T08:39:47;5.28;;;1.58;;
23730;SDS011;12046;44.702;10.622;2023-01-10T08:42:13;4.55;;;1.30;;
23730;SDS011;12046;44.702;10.622;2023-01-10T08:44:41;2.67;;;1.42;;
23730;SDS011;12046;44.702;10.622;2023-01-10T08:47:07;5.50;;;1.50;;
23730;SDS011;12046;44.702;10.622;2023-01-10T08:49:33;4.95;;;1.90;;
23730;SDS011;12046;44.702;10.622;2023-01-10T08:52:00;5.60;;;1.55;;
23730;SDS011;12046;44.702;10.622;2023-01-10T08:54:26;2.88;;;2.03;;
23730;SDS011;12046;44.702;10.622;2023-01-10T08:56:52;2.20;;;1.52;;
23730;SDS011;12046;44.702;10.622;2023-01-10T08:59:18;4.82;;;1.20;;
23730;SDS011;12046;44.702;10.622;2023-01-10T09:01:44;3.13;;;1.20;;
23730;SDS011;12046;44.702;10.622;2023-01-10T09:04:10;6.85;;;1.48;;
23730;SDS011;12046;44.702;10.622;2023-01-10T09:06:36;2.22;;;1.10;;
23730;SDS011;12046;44.702;10.622;2023-01-10T09:09:02;4.93;;;1.27;;
23730;SDS011;12046;44.702;10.622;2023-01-10T09:11:29;2.85;;;1.17;;
23730;SDS011;12046;44.702;10.622;2023-01-10T09:13:55;4.03;;;1.85;;
23730;SDS011;12046;44.702;10.622;2023-01-10T09:16:21;3.50;;;1.13;;
23730;SDS011;12046;44.702;10.622;2023-01-10T09:18:48;2.60;;;1.30;;
23730;SDS011;12046;44.702;10.622;2023-01-10T09:21:14;4.65;;;1.40;;
23730;SDS011;12046;44.702;10.622;2023-01-10T09:23:40;2.38;;;1.60;;
23730;SDS011;12046;44.702;10.622;2023-01-10T09:26:09;2.17;;;1.20;;
23730;SDS011;12046;44.702;10.622;2023-01-10T09:28:35;4.15;;;1.40;;
23730;SDS011;12046;44.702;10.622;2023-01-10T09:31:01;1.80;;;1.38;;
23730;SDS011;12046;44.702;10.622;2023-01-10T09:33:28;3.60;;;1.20;;
23730;SDS011;12046;44.702;10.622;2023-01-10T09:36:04;5.72;;;1.30;;
23730;SDS011;12046;44.702;10.622;2023-01-10T09:38:30;2.13;;;1.00;;
23730;SDS011;12046;44.702;10.622;2023-01-10T09:44:03;1.58;;;0.75;;
23730;SDS011;12046;44.702;10.622;2023-01-10T09:49:38;1.48;;;0.75;;
23730;SDS011;12046;44.702;10.622;2023-01-10T09:55:01;2.38;;;0.90;;
23730;SDS011;12046;44.702;10.622;2023-01-10T09:57:40;2.63;;;0.80;;
23730;SDS011;12046;44.702;10.622;2023-01-10T10:00:07;1.92;;;0.80;;
23730;SDS011;12046;44.702;10.622;2023-01-10T10:02:38;1.70;;;0.75;;
23730;SDS011;12046;44.702;10.622;2023-01-10T10:07:44;3.22;;;1.10;;
23730;SDS011;12046;44.702;10.622;2023-01-10T10:10:25;2.53;;;0.90;;
23730;SDS011;12046;44.702;10.622;2023-01-10T10:21:48;3.28;;;1.20;;
23730;SDS011;12046;44.702;10.622;2023-01-10T10:35:26;5.35;;;0.85;;
23730;SDS011;12046;44.702;10.622;2023-01-10T10:38:16;1.08;;;0.70;;
23730;SDS011;12046;44.702;10.622;2023-01-10T10:40:49;1.40;;;0.80;;
23730;SDS011;12046;44.702;10.622;2023-01-10T10:43:24;0.93;;;0.40;;
23730;SDS011;12046;44.702;10.622;2023-01-10T10:46:03;2.05;;;0.60;;
23730;SDS011;12046;44.702;10.622;2023-01-10T10:48:37;0.88;;;0.60;;
23730;SDS011;12046;44.702;10.622;2023-01-10T10:51:15;0.52;;;0.52;;
23730;SDS011;12046;44.702;10.622;2023-01-10T10:53:41;1.73;;;0.80;;
23730;SDS011;12046;44.702;10.622;2023-01-10T10:56:10;0.75;;;0.40;;
23730;SDS011;12046;44.702;10.622;2023-01-10T10:58:41;1.77;;;0.50;;
23730;SDS011;12046;44.702;10.622;2023-01-10T11:01:12;1.83;;;0.60;;
23730;SDS011;12046;44.702;10.622;2023-01-10T11:03:46;1.10;;;0.40;;
23730;SDS011;12046;44.702;10.622;2023-01-10T11:06:17;1.00;;;0.40;;
23730;SDS011;12046;44.702;10.622;2023-01-10T11:08:46;2.15;;;0.70;;
23730;SDS011;12046;44.702;10.622;2023-01-10T11:11:24;1.20;;;0.80;;
23730;SDS011;12046;44.702;10.622;2023-01-10T11:14:04;1.27;;;0.85;;
23730;SDS011;12046;44.702;10.622;2023-01-10T11:16:33;0.75;;;0.50;;
23730;SDS011;12046;44.702;10.622;2023-01-10T11:21:52;2.42;;;0.70;;
23730;SDS011;12046;44.702;10.622;2023-01-10T11:24:38;3.90;;;1.02;;
23730;SDS011;12046;44.702;10.622;2023-01-10T11:28:12;1.87;;;0.60;;
23730;SDS011;12046;44.702;10.622;2023-01-10T11:30:17;1.98;;;0.70;;
23730;SDS011;12046;44.702;10.622;2023-01-10T11:32:51;2.65;;;0.70;;
23730;SDS011;12046;44.702;10.622;2023-01-10T11:38:14;0.47;;;0.45;;
23730;SDS011;12046;44.702;10.622;2023-01-10T11:41:00;1.30;;;0.65;;
23730;SDS011;12046;44.702;10.622;2023-01-10T11:43:35;0.68;;;0.65;;
23730;SDS011;12046;44.702;10.622;2023-01-10T11:46:04;1.65;;;1.20;;
23730;SDS011;12046;44.702;10.622;2023-01-10T11:48:44;1.52;;;0.63;;
23730;SDS011;12046;44.702;10.622;2023-01-10T11:54:14;1.30;;;0.70;;
23730;SDS011;12046;44.702;10.622;2023-01-10T11:56:57;1.10;;;0.77;;
23730;SDS011;12046;44.702;10.622;2023-01-10T11:59:26;2.75;;;0.63;;
23730;SDS011;12046;44.702;10.622;2023-01-10T12:02:03;1.58;;;0.52;;
23730;SDS011;12046;44.702;10.622;2023-01-10T12:04:55;0.82;;;0.50;;
23730;SDS011;12046;44.702;10.622;2023-01-10T12:07:25;0.55;;;0.50;;
23730;SDS011;12046;44.702;10.622;2023-01-10T12:09:58;1.17;;;0.47;;
23730;SDS011;12046;44.702;10.622;2023-01-10T12:12:28;1.52;;;0.60;;
23730;SDS011;12046;44.702;10.622;2023-01-10T12:15:00;1.63;;;0.63;;
23730;SDS011;12046;44.702;10.622;2023-01-10T12:17:50;0.40;;;0.40;;
23730;SDS011;12046;44.702;10.622;2023-01-10T12:20:19;1.63;;;0.60;;
23730;SDS011;12046;44.702;10.622;2023-01-10T12:22:54;0.50;;;0.50;;
23730;SDS011;12046;44.702;10.622;2023-01-10T12:27:59;0.75;;;0.50;;
23730;SDS011;12046;44.702;10.622;2023-01-10T12:30:33;0.82;;;0.80;;
23730;SDS011;12046;44.702;10.622;2023-01-10T12:33:12;3.20;;;0.63;;
23730;SDS011;12046;44.702;10.622;2023-01-10T12:35:49;1.48;;;0.70;;
23730;SDS011;12046;44.702;10.622;2023-01-10T12:41:44;1.08;;;0.63;;
23730;SDS011;12046;44.702;10.622;2023-01-10T12:44:36;1.38;;;0.80;;
23730;SDS011;12046;44.702;10.622;2023-01-10T12:49:43;0.73;;;0.43;;
23730;SDS011;12046;44.702;10.622;2023-01-10T12:52:33;0.77;;;0.60;;
23730;SDS011;12046;44.702;10.622;2023-01-10T12:55:19;10.10;;;1.50;;
23730;SDS011;12046;44.702;10.622;2023-01-10T12:57:55;1.50;;;0.50;;
23730;SDS011;12046;44.702;10.622;2023-01-10T13:00:23;1.30;;;0.50;;
23730;SDS011;12046;44.702;10.622;2023-01-10T13:02:58;0.80;;;0.60;;
23730;SDS011;12046;44.702;10.622;2023-01-10T13:05:26;2.03;;;0.57;;
23730;SDS011;12046;44.702;10.622;2023-01-10T13:08:02;0.77;;;0.50;;
23730;SDS011;12046;44.702;10.622;2023-01-10T13:10:37;1.02;;;0.50;;
23730;SDS011;12046;44.702;10.622;2023-01-10T13:13:15;2.47;;;0.82;;
23730;SDS011;12046;44.702;10.622;2023-01-10T13:21:31;2.30;;;0.50;;
23730;SDS011;12046;44.702;10.622;2023-01-10T13:24:00;1.50;;;0.68;;
23730;SDS011;12046;44.702;10.622;2023-01-10T13:26:49;2.65;;;0.50;;
23730;SDS011;12046;44.702;10.622;2023-01-10T13:29:25;3.05;;;0.50;;
23730;SDS011;12046;44.702;10.622;2023-01-10T13:31:55;0.82;;;0.50;;
23730;SDS011;12046;44.702;10.622;2023-01-10T13:34:32;3.00;;;0.73;;
23730;SDS011;12046;44.702;10.622;2023-01-10T13:37:10;1.08;;;0.50;;
23730;SDS011;12046;44.702;10.622;2023-01-10T13:39:49;3.35;;;0.70;;
23730;SDS011;12046;44.702;10.622;2023-01-10T13:42:31;2.63;;;0.80;;
23730;SDS011;12046;44.702;10.622;2023-01-10T14:04:26;1.13;;;0.60;;
23730;SDS011;12046;44.702;10.622;2023-01-10T14:12:56;0.70;;;0.63;;
23730;SDS011;12046;44.702;10.622;2023-01-10T14:15:41;1.63;;;0.40;;
23730;SDS011;12046;44.702;10.622;2023-01-10T14:18:52;1.23;;;0.52;;
23730;SDS011;12046;44.702;10.622;2023-01-10T14:21:04;1.90;;;0.73;;
23730;SDS011;12046;44.702;10.622;2023-01-10T14:23:42;0.40;;;0.40;;
23730;SDS011;12046;44.702;10.622;2023-01-10T14:26:16;6.03;;;0.57;;
23730;SDS011;12046;44.702;10.622;2023-01-10T14:28:53;1.88;;;0.40;;
23730;SDS011;12046;44.702;10.622;2023-01-10T14:31:23;1.08;;;0.40;;
23730;SDS011;12046;44.702;10.622;2023-01-10T14:33:55;2.78;;;0.50;;
23730;SDS011;12046;44.702;10.622;2023-01-10T14:36:27;1.15;;;0.50;;
23730;SDS011;12046;44.702;10.622;2023-01-10T14:39:03;1.00;;;0.30;;
23730;SDS011;12046;44.702;10.622;2023-01-10T14:41:36;1.70;;;0.50;;
23730;SDS011;12046;44.702;10.622;2023-01-10T14:44:14;2.42;;;0.68;;
23730;SDS011;12046;44.702;10.622;2023-01-10T14:49:20;1.80;;;0.60;;
23730;SDS011;12046;44.702;10.622;2023-01-10T14:51:54;3.13;;;0.70;;
23730;SDS011;12046;44.702;10.622;2023-01-10T14:54:35;0.77;;;0.60;;
23730;SDS011;12046;44.702;10.622;2023-01-10T14:57:02;1.65;;;0.50;;
23730;SDS011;12046;44.702;10.622;2023-01-10T14:59:30;3.42;;;0.55;;
23730;SDS011;12046;44.702;10.622;2023-01-10T15:01:59;2.75;;;0.75;;
23730;SDS011;12046;44.702;10.622;2023-01-10T15:04:54;0.93;;;0.50;;
23730;SDS011;12046;44.702;10.622;2023-01-10T15:07:21;1.55;;;0.70;;
23730;SDS011;12046;44.702;10.622;2023-01-10T15:09:52;2.05;;;1.02;;
23730;SDS011;12046;44.702;10.622;2023-01-10T15:12:23;3.65;;;1.10;;
23730;SDS011;12046;44.702;10.622;2023-01-10T15:15:13;2.40;;;1.00;;
23730;SDS011;12046;44.702;10.622;2023-01-10T15:17:48;3.70;;;0.80;;
23730;SDS011;12046;44.702;10.622;2023-01-10T15:20:17;1.73;;;0.60;;
23730;SDS011;12046;44.702;10.622;2023-01-10T15:22:46;1.02;;;0.55;;
23730;SDS011;12046;44.702;10.622;2023-01-10T15:27:44;2.55;;;0.70;;
23730;SDS011;12046;44.702;10.622;2023-01-10T15:30:19;2.22;;;0.60;;
23730;SDS011;12046;44.702;10.622;2023-01-10T15:32:48;1.15;;;0.60;;
23730;SDS011;12046;44.702;10.622;2023-01-10T15:35:16;2.25;;;0.70;;
23730;SDS011;12046;44.702;10.622;2023-01-10T15:37:53;2.42;;;0.70;;
23730;SDS011;12046;44.702;10.622;2023-01-10T15:40:23;1.45;;;0.75;;
23730;SDS011;12046;44.702;10.622;2023-01-10T15:43:38;3.30;;;0.70;;
23730;SDS011;12046;44.702;10.622;2023-01-10T15:46:03;1.42;;;0.63;;
23730;SDS011;12046;44.702;10.622;2023-01-10T15:48:31;3.03;;;0.77;;
23730;SDS011;12046;44.702;10.622;2023-01-10T15:51:46;4.22;;;0.80;;
23730;SDS011;12046;44.702;10.622;2023-01-10T15:53:59;1.55;;;0.80;;
23730;SDS011;12046;44.702;10.622;2023-01-10T15:56:39;2.97;;;1.10;;
23730;SDS011;12046;44.702;10.622;2023-01-10T15:59:28;0.82;;;0.70;;
23730;SDS011;12046;44.702;10.622;2023-01-10T16:04:48;1.15;;;0.90;;
23730;SDS011;12046;44.702;10.622;2023-01-10T16:07:18;1.80;;;0.80;;
23730;SDS011;12046;44.702;10.622;2023-01-10T16:12:45;2.80;;;1.48;;
23730;SDS011;12046;44.702;10.622;2023-01-10T16:15:34;2.28;;;1.63;;
23730;SDS011;12046;44.702;10.622;2023-01-10T16:18:06;4.57;;;2.05;;
23730;SDS011;12046;44.702;10.622;2023-01-10T16:20:35;4.53;;;1.70;;
23730;SDS011;12046;44.702;10.622;2023-01-10T16:23:04;3.58;;;1.95;;
23730;SDS011;12046;44.702;10.622;2023-01-10T16:25:36;4.80;;;2.45;;
23730;SDS011;12046;44.702;10.622;2023-01-10T16:28:04;2.92;;;1.75;;
23730;SDS011;12046;44.702;10.622;2023-01-10T16:30:32;4.32;;;2.10;;
23730;SDS011;12046;44.702;10.622;2023-01-10T16:33:00;4.05;;;2.17;;
23730;SDS011;12046;44.702;10.622;2023-01-10T16:35:34;4.53;;;2.65;;
23730;SDS011;12046;44.702;10.622;2023-01-10T16:38:00;4.75;;;2.30;;
23730;SDS011;12046;44.702;10.622;2023-01-10T16:40:32;4.72;;;2.25;;
23730;SDS011;12046;44.702;10.622;2023-01-10T16:43:01;3.25;;;1.60;;
23730;SDS011;12046;44.702;10.622;2023-01-10T16:45:52;3.10;;;1.55;;
23730;SDS011;12046;44.702;10.622;2023-01-10T16:48:24;3.72;;;1.75;;
23730;SDS011;12046;44.702;10.622;2023-01-10T16:51:15;2.78;;;1.45;;
23730;SDS011;12046;44.702;10.622;2023-01-10T16:53:45;2.85;;;1.60;;
23730;SDS011;12046;44.702;10.622;2023-01-10T16:56:12;2.42;;;1.80;;
23730;SDS011;12046;44.702;10.622;2023-01-10T16:58:43;3.28;;;1.90;;
23730;SDS011;12046;44.702;10.622;2023-01-10T17:01:12;1.83;;;1.35;;
23730;SDS011;12046;44.702;10.622;2023-01-10T17:03:42;2.75;;;1.58;;
23730;SDS011;12046;44.702;10.622;2023-01-10T17:06:10;4.22;;;2.17;;